Time;durP1;ratioP1;P1;durP2;ratioP2;P2;SDS_P1;SDS_P2;PMS_P1;PMS_P2;Temp;Humidity;BMP_temperature;BMP_pressure;BME280_temperature;BME280_humidity;BME280_pressure;Samples;Min_cycle;Max_cycle;Signal;HPM_P1;HPM_P2
2023/03/12 00:01:13;;;;;;;5.03;3.28;;;;;;;-1.74;100.00;101136.94;4977277;28;20046;-76
2023/03/12 00:03:39;;;;;;;5.35;3.63;;;;;;;-1.73;100.00;101133.47;4974210;28;20088;-76
2023/03/12 00:06:05;;;;;;;8.50;3.78;;;;;;;-1.73;100.00;101130.88;4982752;28;20045;-76
2023/03/12 00:08:31;;;;;;;6.72;3.35;;;;;;;-1.74;100.00;101127.41;4998458;28;20545;-76
2023/03/12 00:10:56;;;;;;;4.30;3.13;;;;;;;-1.74;100.00;101116.16;4997742;28;20132;-76
2023/03/12 00:13:22;;;;;;;6.60;3.40;;;;;;;-1.75;100.00;101123.06;4998174;28;20037;-76
2023/03/12 00:15:47;;;;;;;6.03;3.35;;;;;;;-1.76;100.00;101117.88;4964658;28;20184;-76
2023/03/12 00:18:13;;;;;;;5.45;3.50;;;;;;;-1.79;100.00;101118.72;4982580;28;20144;-77
2023/03/12 00:20:38;;;;;;;6.55;4.07;;;;;;;-1.83;100.00;101115.22;4998233;28;20655;-76
2023/03/12 00:23:04;;;;;;;6.75;4.00;;;;;;;-1.83;100.00;101122.13;4997119;28;20061;-76
2023/03/12 00:25:29;;;;;;;8.18;4.45;;;;;;;-1.83;100.00;101119.53;4985328;28;20764;-76
2023/03/12 00:27:55;;;;;;;8.88;4.32;;;;;;;-1.83;100.00;101111.72;4982301;28;20763;-76
2023/03/12 00:30:21;;;;;;;9.02;4.35;;;;;;;-1.83;100.00;101112.63;4991394;28;20049;-75
2023/03/12 00:32:46;;;;;;;9.85;4.80;;;;;;;-1.81;100.00;101120.41;4979554;28;20064;-76
2023/03/12 00:35:12;;;;;;;8.00;4.47;;;;;;;-1.82;100.00;101116.94;4972639;28;20052;-76
2023/03/12 00:37:38;;;;;;;8.18;4.93;;;;;;;-1.82;100.00;101119.53;4972691;28;20668;-76
2023/03/12 00:40:05;;;;;;;6.85;4.65;;;;;;;-1.83;100.00;101107.44;4972118;28;20496;-76
2023/03/12 00:42:31;;;;;;;6.43;4.47;;;;;;;-1.84;100.00;101110.88;4999442;28;20053;-75
2023/03/12 00:44:56;;;;;;;7.95;5.32;;;;;;;-1.83;100.00;101109.13;4979790;28;20046;-76
2023/03/12 00:47:22;;;;;;;9.55;4.75;;;;;;;-1.85;100.00;101103.91;4998537;28;20670;-75
2023/03/12 00:49:47;;;;;;;6.43;4.70;;;;;;;-1.84;100.00;101110.00;4998808;28;20658;-76
2023/03/12 00:52:13;;;;;;;7.80;4.80;;;;;;;-1.86;100.00;101104.78;4996967;28;21694;-75
2023/03/12 00:54:39;;;;;;;7.85;4.68;;;;;;;-1.84;100.00;101110.00;4965143;28;20308;-76
2023/03/12 00:57:04;;;;;;;8.77;4.88;;;;;;;-1.84;100.00;101107.41;4995847;28;20460;-76
2023/03/12 00:59:30;;;;;;;9.43;5.13;;;;;;;-1.84;100.00;101112.59;4983681;28;20045;-77
2023/03/12 01:01:56;;;;;;;8.65;5.22;;;;;;;-1.85;100.00;101108.25;4982040;28;20046;-76
2023/03/12 01:04:21;;;;;;;8.25;4.93;;;;;;;-1.85;100.00;101109.13;4997480;28;20054;-77
2023/03/12 01:06:47;;;;;;;7.95;4.97;;;;;;;-1.85;100.00;101103.91;4995409;28;20577;-77
2023/03/12 01:09:13;;;;;;;8.85;4.80;;;;;;;-1.85;100.00;101103.06;4968742;28;20080;-77
2023/03/12 01:11:38;;;;;;;9.18;5.15;;;;;;;-1.86;100.00;101094.41;4997227;28;20532;-77
2023/03/12 01:14:07;;;;;;;8.30;4.95;;;;;;;-1.87;100.00;101087.47;4997387;28;20053;-77
2023/03/12 01:16:32;;;;;;;9.07;4.43;;;;;;;-1.85;100.00;101088.34;4995715;28;20061;-77
2023/03/12 01:18:59;;;;;;;8.73;4.30;;;;;;;-1.86;100.00;101089.22;4997601;28;20045;-77
2023/03/12 01:21:26;;;;;;;6.70;3.88;;;;;;;-1.84;100.00;101089.22;4996250;28;20543;-77
2023/03/12 01:23:52;;;;;;;8.77;4.00;;;;;;;-1.84;100.00;101079.72;4977689;28;20461;-77
2023/03/12 01:26:17;;;;;;;10.13;4.25;;;;;;;-1.82;100.00;101080.59;4979224;28;20046;-77
2023/03/12 01:28:43;;;;;;;6.10;4.60;;;;;;;-1.79;100.00;101071.97;4988353;28;20050;-77
2023/03/12 01:31:12;;;;;;;6.28;4.00;;;;;;;-1.78;100.00;101068.53;4980745;28;20111;-77
2023/03/12 01:33:38;;;;;;;5.93;4.13;;;;;;;-1.74;100.00;101069.44;4983675;28;20068;-77
2023/03/12 01:36:04;;;;;;;8.38;4.10;;;;;;;-1.71;100.00;101072.03;4997871;28;20168;-77
2023/03/12 01:38:30;;;;;;;6.15;4.15;;;;;;;-1.70;100.00;101071.22;4986253;28;20053;-77
2023/03/12 01:41:02;;;;;;;4.95;3.50;;;;;;;-1.66;100.00;101067.75;4966603;28;20037;-77
2023/03/12 01:43:31;;;;;;;5.25;3.53;;;;;;;-1.63;100.00;101062.63;4978618;28;20425;-77
2023/03/12 01:46:15;;;;;;;5.80;3.83;;;;;;;-1.60;100.00;101054.84;4979983;28;20053;-77
2023/03/12 01:49:07;;;;;;;4.60;3.90;;;;;;;-1.59;100.00;101051.38;4979596;28;20148;-77
2023/03/12 01:51:47;;;;;;;5.78;3.65;;;;;;;-1.56;100.00;101047.94;4948319;28;20058;-77
2023/03/12 01:54:17;;;;;;;5.70;3.70;;;;;;;-1.55;100.00;101045.34;4996821;28;20565;-77
2023/03/12 01:56:43;;;;;;;10.32;4.38;;;;;;;-1.52;100.00;101047.97;4981107;28;20277;-77
2023/03/12 01:59:15;;;;;;;7.57;3.65;;;;;;;-1.51;100.00;101041.06;4966379;28;20042;-77
2023/03/12 02:01:41;;;;;;;6.82;4.38;;;;;;;-1.49;100.00;101035.88;4982347;28;20052;-77
2023/03/12 02:04:07;;;;;;;7.05;4.15;;;;;;;-1.47;100.00;101040.19;4997423;28;20436;-77
2023/03/12 02:06:39;;;;;;;8.45;4.35;;;;;;;-1.45;100.00;101032.44;4996840;28;20298;-77
2023/03/12 02:09:06;;;;;;;10.73;5.43;;;;;;;-1.43;100.00;101034.19;4962516;28;20037;-77
2023/03/12 02:11:31;;;;;;;9.30;5.45;;;;;;;-1.42;100.00;101025.53;4982379;28;20053;-77
2023/03/12 02:13:57;;;;;;;9.40;5.15;;;;;;;-1.40;100.00;101029.03;4997153;28;20093;-77
2023/03/12 02:16:24;;;;;;;7.10;4.88;;;;;;;-1.38;100.00;101026.41;4996285;28;20513;-77
2023/03/12 02:18:51;;;;;;;9.60;4.88;;;;;;;-1.36;100.00;101024.72;4985012;28;20138;-77
2023/03/12 02:21:28;;;;;;;6.57;4.55;;;;;;;-1.34;100.00;101016.91;4995180;28;20049;-77
2023/03/12 02:24:00;;;;;;;6.00;3.80;;;;;;;-1.33;100.00;101016.94;4996148;28;20104;-77
2023/03/12 02:26:26;;;;;;;4.88;3.00;;;;;;;-1.30;100.00;101021.28;4964184;28;20469;-77
2023/03/12 02:28:53;;;;;;;7.47;3.83;;;;;;;-1.28;100.00;101010.03;4977876;28;20061;-77
2023/03/12 02:31:22;;;;;;;7.70;3.90;;;;;;;-1.25;100.00;101009.19;4978589;28;20278;-77
2023/03/12 02:33:48;;;;;;;5.40;4.00;;;;;;;-1.25;100.00;100996.22;4996072;28;20034;-77
2023/03/12 02:36:14;;;;;;;6.10;3.85;;;;;;;-1.21;100.00;100991.91;4980630;28;20507;-77
2023/03/12 02:38:42;;;;;;;6.15;4.00;;;;;;;-1.19;100.00;100980.66;4983183;28;20057;-77
2023/03/12 02:41:29;;;;;;;5.45;3.75;;;;;;;-1.17;100.00;100985.84;4995124;28;20057;-77
2023/03/12 02:44:06;;;;;;;5.75;3.40;;;;;;;-1.13;100.00;100985.00;4978242;28;20546;-76
2023/03/12 02:46:34;;;;;;;8.48;3.95;;;;;;;-1.11;100.00;100976.38;4996870;28;20497;-76
2023/03/12 02:49:01;;;;;;;7.35;3.30;;;;;;;-1.09;100.00;100976.38;4970184;28;20547;-77
2023/03/12 02:51:26;;;;;;;4.22;3.42;;;;;;;-1.08;100.00;100975.50;4985443;28;20533;-77
2023/03/12 02:53:53;;;;;;;7.03;3.55;;;;;;;-1.07;100.00;100972.06;4992627;28;20898;-77
2023/03/12 02:56:23;;;;;;;6.90;3.50;;;;;;;-1.06;100.00;100965.09;4980650;28;20046;-76
2023/03/12 02:58:49;;;;;;;5.30;3.50;;;;;;;-1.04;100.00;100955.59;4995658;28;20050;-76
2023/03/12 03:01:15;;;;;;;5.95;3.47;;;;;;;-1.02;100.00;100946.06;4979126;28;20370;-76
2023/03/12 03:03:40;;;;;;;6.80;3.47;;;;;;;-1.01;100.00;100948.69;4978131;28;20100;-76
2023/03/12 03:06:06;;;;;;;7.10;3.63;;;;;;;-1.01;100.00;100943.50;4993895;28;20468;-76
2023/03/12 03:08:31;;;;;;;4.85;3.30;;;;;;;-1.00;100.00;100933.94;4995471;28;20718;-76
2023/03/12 03:10:57;;;;;;;5.10;3.42;;;;;;;-1.00;100.00;100931.34;4977671;28;20431;-76
2023/03/12 03:13:23;;;;;;;4.95;3.28;;;;;;;-1.00;100.00;100934.81;4977934;28;21843;-76
2023/03/12 03:15:48;;;;;;;7.10;3.30;;;;;;;-0.99;100.00;100926.16;4976165;28;20049;-76
2023/03/12 03:18:14;;;;;;;6.60;2.78;;;;;;;-0.98;100.00;100925.28;4978623;28;20524;-76
2023/03/12 03:20:39;;;;;;;7.35;3.20;;;;;;;-0.97;100.00;100927.03;4980224;28;20049;-76
2023/03/12 03:23:05;;;;;;;3.92;2.80;;;;;;;-0.96;100.00;100931.34;4995194;28;20045;-76
2023/03/12 03:25:32;;;;;;;4.28;3.38;;;;;;;-0.95;100.00;100916.63;4985145;28;20128;-76
2023/03/12 03:27:58;;;;;;;4.35;2.92;;;;;;;-0.94;100.00;100917.53;4978987;28;20460;-75
2023/03/12 03:30:23;;;;;;;6.72;3.28;;;;;;;-0.92;100.00;100913.19;4995006;28;20050;-76
2023/03/12 03:32:49;;;;;;;5.47;2.97;;;;;;;-0.92;100.00;100905.38;4995305;28;20054;-76
2023/03/12 03:35:15;;;;;;;5.35;3.15;;;;;;;-0.90;100.00;100912.34;4975877;28;20085;-76
2023/03/12 03:37:40;;;;;;;5.35;2.72;;;;;;;-0.91;100.00;100896.72;4979401;28;20451;-76
2023/03/12 03:40:10;;;;;;;3.40;2.67;;;;;;;-0.91;100.00;100892.41;4994515;28;20062;-75
2023/03/12 03:42:37;;;;;;;5.97;3.35;;;;;;;-0.90;100.00;100893.25;4993733;28;20064;-75
2023/03/12 03:45:03;;;;;;;7.93;3.10;;;;;;;-0.91;100.00;100891.53;4970294;28;20038;-76
2023/03/12 03:47:28;;;;;;;4.43;2.90;;;;;;;-0.91;100.00;100891.53;4984040;28;21656;-75
2023/03/12 03:49:54;;;;;;;4.53;3.20;;;;;;;-0.91;100.00;100902.81;4965136;28;20906;-75
2023/03/12 03:52:19;;;;;;;5.15;3.20;;;;;;;-0.89;100.00;100897.59;4964238;28;20034;-75
2023/03/12 03:54:45;;;;;;;4.25;3.05;;;;;;;-0.91;100.00;100892.41;4977358;28;20518;-75
2023/03/12 03:57:10;;;;;;;4.88;3.10;;;;;;;-0.91;100.00;100887.19;4994272;28;20473;-76
2023/03/12 03:59:36;;;;;;;4.45;3.05;;;;;;;-0.89;100.00;100882.00;4979010;28;20100;-75
2023/03/12 04:02:01;;;;;;;5.60;3.05;;;;;;;-0.89;100.00;100869.88;4976530;28;20145;-75
2023/03/12 04:04:27;;;;;;;4.85;3.03;;;;;;;-0.87;100.00;100877.69;4975303;28;20073;-75
2023/03/12 04:06:53;;;;;;;5.07;3.20;;;;;;;-0.86;100.00;100882.00;4980416;28;20042;-75
2023/03/12 04:09:19;;;;;;;4.95;2.97;;;;;;;-0.84;100.00;100880.28;4966426;28;20128;-75
2023/03/12 04:11:44;;;;;;;6.25;3.10;;;;;;;-0.83;100.00;100880.28;4992808;28;20171;-75
2023/03/12 04:14:10;;;;;;;4.82;3.03;;;;;;;-0.81;100.00;100880.28;4995024;28;20050;-75
2023/03/12 04:16:35;;;;;;;4.85;3.15;;;;;;;-0.80;100.00;100873.34;4960760;28;20045;-76
2023/03/12 04:19:01;;;;;;;7.18;3.08;;;;;;;-0.79;100.00;100867.28;4983878;28;20044;-75
2023/03/12 04:21:26;;;;;;;4.75;3.08;;;;;;;-0.79;100.00;100855.16;4993741;28;20116;-75
2023/03/12 04:23:52;;;;;;;6.63;3.38;;;;;;;-0.75;100.00;100849.13;4977953;28;20100;-75
2023/03/12 04:26:17;;;;;;;4.43;2.97;;;;;;;-0.74;100.00;100839.56;4977013;28;20041;-76
2023/03/12 04:28:43;;;;;;;4.88;3.50;;;;;;;-0.74;100.00;100845.66;4993306;28;20050;-75
2023/03/12 04:31:09;;;;;;;5.65;3.20;;;;;;;-0.71;100.00;100842.19;4976841;28;20178;-75
2023/03/12 04:33:36;;;;;;;4.88;3.22;;;;;;;-0.69;100.00;100840.44;4979214;28;20168;-75
2023/03/12 04:36:02;;;;;;;4.65;3.50;;;;;;;-0.68;100.00;100831.78;4943838;28;20041;-74
2023/03/12 04:38:28;;;;;;;5.15;3.30;;;;;;;-0.68;100.00;100831.78;4975947;28;20616;-75
2023/03/12 04:41:03;;;;;;;7.85;3.40;;;;;;;-0.68;100.00;100831.78;4982285;28;20048;-74
2023/03/12 04:43:29;;;;;;;3.85;3.00;;;;;;;-0.66;100.00;100836.97;4978567;28;21606;-73
2023/03/12 04:45:55;;;;;;;7.88;3.30;;;;;;;-0.66;100.00;100831.78;4984524;28;20044;-74
2023/03/12 04:48:21;;;;;;;5.53;3.08;;;;;;;-0.66;100.00;100829.19;4992832;28;20068;-74
2023/03/12 04:50:47;;;;;;;5.15;3.47;;;;;;;-0.65;100.00;100828.31;4995161;28;20072;-75
2023/03/12 04:53:12;;;;;;;4.32;3.10;;;;;;;-0.65;100.00;100833.50;4998372;28;20045;-75
2023/03/12 04:55:38;;;;;;;4.13;2.95;;;;;;;-0.67;100.00;100820.50;4998014;28;20076;-74
2023/03/12 04:58:03;;;;;;;4.65;3.00;;;;;;;-0.66;100.00;100818.78;4977391;28;20050;-74
2023/03/12 05:00:29;;;;;;;7.13;3.40;;;;;;;-0.67;100.00;100817.91;4997972;28;20303;-75
2023/03/12 05:02:54;;;;;;;5.93;3.05;;;;;;;-0.65;100.00;100810.09;4997487;28;20570;-75
2023/03/12 05:05:20;;;;;;;6.18;3.65;;;;;;;-0.67;100.00;100802.28;4995737;28;20601;-75
2023/03/12 05:07:45;;;;;;;5.55;3.30;;;;;;;-0.67;100.00;100801.44;4972438;28;20389;-75
2023/03/12 05:10:11;;;;;;;5.85;3.17;;;;;;;-0.66;100.00;100795.38;4997709;28;20076;-75
2023/03/12 05:12:36;;;;;;;4.50;3.28;;;;;;;-0.69;100.00;100794.47;4969647;28;20049;-75
2023/03/12 05:15:03;;;;;;;4.65;3.35;;;;;;;-0.68;100.00;100792.75;4963939;28;20042;-75
2023/03/12 05:17:28;;;;;;;7.25;3.80;;;;;;;-0.70;100.00;100784.94;4981427;28;20059;-75
2023/03/12 05:19:54;;;;;;;6.88;3.55;;;;;;;-0.69;100.00;100773.69;4998194;28;20545;-75
2023/03/12 05:22:19;;;;;;;6.00;3.70;;;;;;;-0.67;100.00;100772.84;4996361;28;20042;-74
2023/03/12 05:24:45;;;;;;;4.97;3.25;;;;;;;-0.69;100.00;100771.06;4996765;28;20073;-75
2023/03/12 05:27:11;;;;;;;5.00;3.15;;;;;;;-0.69;100.00;100768.47;4984988;28;20049;-75
2023/03/12 05:29:36;;;;;;;5.25;3.42;;;;;;;-0.67;100.00;100757.22;4996419;28;20132;-75
2023/03/12 05:32:02;;;;;;;4.22;3.08;;;;;;;-0.67;100.00;100750.28;4997218;28;20056;-75
2023/03/12 05:34:29;;;;;;;6.07;3.85;;;;;;;-0.67;100.00;100742.47;4976614;28;20628;-75
2023/03/12 05:36:55;;;;;;;6.88;3.15;;;;;;;-0.66;100.00;100731.22;4995664;28;20044;-75
2023/03/12 05:39:21;;;;;;;4.65;3.38;;;;;;;-0.65;100.00;100742.50;4987637;28;20049;-75
2023/03/12 05:41:58;;;;;;;7.88;3.78;;;;;;;-0.65;100.00;100745.94;4981431;28;20049;-75
2023/03/12 05:44:24;;;;;;;5.38;3.40;;;;;;;-0.65;100.00;100737.28;4978282;28;20716;-75
2023/03/12 05:46:50;;;;;;;6.38;3.38;;;;;;;-0.64;100.00;100737.28;4965798;28;20046;-75
2023/03/12 05:49:16;;;;;;;3.97;3.10;;;;;;;-0.63;100.00;100735.53;4982453;28;21065;-75
2023/03/12 05:51:42;;;;;;;6.80;3.80;;;;;;;-0.62;100.00;100739.88;4960141;28;20053;-75
2023/03/12 05:54:08;;;;;;;6.28;3.50;;;;;;;-0.60;100.00;100735.56;4979221;28;20049;-75
2023/03/12 05:56:35;;;;;;;4.70;2.90;;;;;;;-0.61;100.00;100726.88;4979013;28;21740;-75
2023/03/12 05:59:01;;;;;;;4.65;3.25;;;;;;;-0.59;100.00;100734.69;4960787;28;20034;-75
2023/03/12 06:01:28;;;;;;;8.35;3.40;;;;;;;-0.58;100.00;100739.00;4979535;28;21399;-75
2023/03/12 06:03:54;;;;;;;5.03;3.72;;;;;;;-0.58;100.00;100736.41;4967120;28;20065;-75
2023/03/12 06:06:20;;;;;;;5.10;3.50;;;;;;;-0.57;100.00;100730.34;4957977;28;20402;-75
2023/03/12 06:08:45;;;;;;;7.63;3.92;;;;;;;-0.55;100.00;100737.28;4978998;28;20078;-75
2023/03/12 06:11:12;;;;;;;4.40;3.58;;;;;;;-0.54;100.00;100740.75;4959476;28;20060;-75
2023/03/12 06:13:37;;;;;;;4.35;3.53;;;;;;;-0.53;100.00;100745.09;4931668;28;20038;-75
2023/03/12 06:16:03;;;;;;;5.82;3.28;;;;;;;-0.52;100.00;100749.41;4979149;28;20042;-75
2023/03/12 06:18:30;;;;;;;4.22;3.00;;;;;;;-0.49;100.00;100739.00;4960351;28;20140;-75
2023/03/12 06:21:10;;;;;;;5.93;3.80;;;;;;;-0.50;100.00;100731.22;4959501;28;20568;-75
2023/03/12 06:23:36;;;;;;;7.28;3.50;;;;;;;-0.49;100.00;100728.59;4969549;28;20107;-75
2023/03/12 06:26:01;;;;;;;5.53;3.22;;;;;;;-0.48;100.00;100729.47;4962807;28;20120;-75
2023/03/12 06:28:29;;;;;;;3.67;3.25;;;;;;;-0.48;100.00;100726.88;4963582;28;20489;-75
2023/03/12 06:30:55;;;;;;;5.63;3.33;;;;;;;-0.49;100.00;100739.00;4944014;28;20086;-75
2023/03/12 06:33:21;;;;;;;5.07;3.47;;;;;;;-0.50;100.00;100750.28;4949584;28;20413;-75
2023/03/12 06:35:46;;;;;;;4.18;3.45;;;;;;;-0.52;100.00;100756.34;4979139;28;20116;-75
2023/03/12 06:38:12;;;;;;;5.55;3.53;;;;;;;-0.53;100.00;100762.41;4977547;28;20476;-75
2023/03/12 06:40:38;;;;;;;6.20;3.45;;;;;;;-0.55;100.00;100763.28;4959728;28;20611;-75
2023/03/12 06:43:04;;;;;;;6.00;3.97;;;;;;;-0.56;100.00;100763.28;4961817;28;20751;-75
2023/03/12 06:45:29;;;;;;;5.30;3.75;;;;;;;-0.59;100.00;100755.50;4959556;28;20417;-75
2023/03/12 06:47:55;;;;;;;7.15;3.72;;;;;;;-0.60;100.00;100757.22;4978233;28;20045;-75
2023/03/12 06:50:20;;;;;;;6.57;4.05;;;;;;;-0.61;100.00;100757.22;4965212;28;20445;-75
2023/03/12 06:52:46;;;;;;;5.20;3.90;;;;;;;-0.63;100.00;100762.44;4996735;28;20056;-75
2023/03/12 06:55:11;;;;;;;7.15;4.78;;;;;;;-0.63;100.00;100767.63;4980073;28;20547;-75
2023/03/12 06:57:37;;;;;;;5.40;4.05;;;;;;;-0.64;100.00;100763.31;4979631;28;20053;-75
2023/03/12 07:00:04;;;;;;;4.93;3.78;;;;;;;-0.64;100.00;100765.03;4979973;28;20049;-75
2023/03/12 07:02:29;;;;;;;6.25;3.75;;;;;;;-0.67;100.00;100760.69;4997780;28;20070;-75
2023/03/12 07:04:55;;;;;;;6.03;3.50;;;;;;;-0.67;100.00;100754.63;4978924;28;20128;-76
2023/03/12 07:07:20;;;;;;;5.88;4.10;;;;;;;-0.70;100.00;100734.69;4997121;28;20184;-75
2023/03/12 07:09:46;;;;;;;9.27;3.80;;;;;;;-0.71;100.00;100726.00;4985062;28;21295;-75
2023/03/12 07:12:11;;;;;;;5.07;3.75;;;;;;;-0.71;100.00;100733.81;4983541;28;20068;-75
2023/03/12 07:14:37;;;;;;;5.10;3.80;;;;;;;-0.71;100.00;100722.56;4997580;28;21171;-75
2023/03/12 07:17:03;;;;;;;7.25;4.13;;;;;;;-0.71;100.00;100722.56;4986019;28;20052;-75
2023/03/12 07:19:29;;;;;;;5.85;3.72;;;;;;;-0.72;100.00;100706.09;4984511;28;20041;-75
2023/03/12 07:21:55;;;;;;;5.65;3.78;;;;;;;-0.71;100.00;100700.00;4997210;28;20412;-75
2023/03/12 07:24:21;;;;;;;7.07;3.95;;;;;;;-0.69;100.00;100687.88;4968676;28;20513;-75
2023/03/12 07:26:46;;;;;;;5.40;3.70;;;;;;;-0.69;100.00;100677.47;4997509;28;20050;-76
2023/03/12 07:29:12;;;;;;;5.65;3.97;;;;;;;-0.65;100.00;100669.69;4985862;28;20493;-75
2023/03/12 07:31:37;;;;;;;7.00;3.97;;;;;;;-0.64;100.00;100666.19;4996883;28;20467;-75
2023/03/12 07:34:04;;;;;;;7.20;4.45;;;;;;;-0.62;100.00;100654.03;4997826;28;20104;-76
2023/03/12 07:36:31;;;;;;;8.85;4.10;;;;;;;-0.60;100.00;100652.34;4995587;28;21932;-76
2023/03/12 07:38:56;;;;;;;4.95;3.83;;;;;;;-0.60;100.00;100641.94;4997184;28;20673;-75
2023/03/12 07:41:22;;;;;;;5.65;3.95;;;;;;;-0.60;100.00;100631.53;4996864;28;20050;-75
2023/03/12 07:43:47;;;;;;;5.38;4.13;;;;;;;-0.61;100.00;100635.84;4981625;28;20149;-75
2023/03/12 07:46:13;;;;;;;8.30;4.47;;;;;;;-0.59;100.00;100625.44;4996948;28;20041;-75
2023/03/12 07:48:38;;;;;;;6.85;4.28;;;;;;;-0.59;100.00;100638.44;4984853;28;20406;-74
2023/03/12 07:51:04;;;;;;;7.20;4.05;;;;;;;-0.59;100.00;100648.84;4996347;28;20120;-75
2023/03/12 07:53:30;;;;;;;9.80;4.38;;;;;;;-0.60;100.00;100653.19;4996726;28;20050;-75
2023/03/12 07:55:55;;;;;;;7.95;4.25;;;;;;;-0.59;100.00;100659.25;4980612;28;20052;-74
2023/03/12 07:58:21;;;;;;;6.05;4.32;;;;;;;-0.61;100.00;100653.22;4996571;28;20046;-74
2023/03/12 08:00:46;;;;;;;5.65;3.50;;;;;;;-0.61;100.00;100658.41;4977932;28;20065;-74
2023/03/12 08:03:12;;;;;;;4.28;3.88;;;;;;;-0.62;100.00;100648.84;4996430;28;20128;-74
2023/03/12 08:05:38;;;;;;;5.75;4.28;;;;;;;-0.61;100.00;100642.81;4996477;28;20046;-74
2023/03/12 08:08:04;;;;;;;5.30;3.90;;;;;;;-0.59;100.00;100639.31;4976007;28;20208;-73
2023/03/12 08:10:29;;;;;;;5.60;3.80;;;;;;;-0.57;100.00;100647.09;4978677;28;20181;-74
2023/03/12 08:12:55;;;;;;;8.40;4.25;;;;;;;-0.53;100.00;100646.25;4996666;28;20116;-74
2023/03/12 08:15:20;;;;;;;5.22;3.95;;;;;;;-0.52;100.00;100645.38;4986176;28;20037;-73
2023/03/12 08:17:46;;;;;;;7.65;4.03;;;;;;;-0.50;100.00;100643.63;4996442;28;21316;-74
2023/03/12 08:20:12;;;;;;;5.22;3.90;;;;;;;-0.48;100.00;100639.28;4979643;28;20604;-74
2023/03/12 08:22:39;;;;;;;7.53;4.13;;;;;;;-0.43;100.00;100634.09;4996611;28;20180;-74
2023/03/12 08:25:05;;;;;;;9.88;4.22;;;;;;;-0.39;100.00;100629.72;4996899;28;20443;-74
2023/03/12 08:27:32;;;;;;;5.05;3.85;;;;;;;-0.37;100.00;100615.84;4979262;28;20041;-74
2023/03/12 08:29:58;;;;;;;6.88;4.03;;;;;;;-0.35;100.00;100621.91;5000677;28;20268;-74
2023/03/12 08:32:23;;;;;;;5.60;4.20;;;;;;;-0.31;100.00;100612.34;5000658;28;20049;-74
2023/03/12 08:34:49;;;;;;;11.60;4.82;;;;;;;-0.28;100.00;100607.13;4998099;28;20540;-74
2023/03/12 08:37:15;;;;;;;8.45;5.35;;;;;;;-0.28;100.00;100602.78;4999308;28;20531;-75
2023/03/12 08:39:40;;;;;;;5.95;4.30;;;;;;;-0.25;100.00;100595.84;4986902;28;20497;-75
2023/03/12 08:42:06;;;;;;;5.88;4.50;;;;;;;-0.23;100.00;100597.56;4986861;28;20180;-75
2023/03/12 08:44:32;;;;;;;8.55;5.10;;;;;;;-0.20;100.00;100599.28;4981547;28;20064;-74
2023/03/12 08:46:58;;;;;;;7.47;5.00;;;;;;;-0.17;100.00;100604.47;4983605;28;20049;-75
2023/03/12 08:49:23;;;;;;;9.43;5.05;;;;;;;-0.16;100.00;100601.88;4995621;28;20112;-75
2023/03/12 08:51:50;;;;;;;11.45;5.35;;;;;;;-0.13;100.00;100600.13;4980502;28;20512;-75
2023/03/12 08:54:17;;;;;;;10.07;4.95;;;;;;;-0.12;100.00;100596.66;4982381;28;20088;-75
2023/03/12 08:56:43;;;;;;;11.23;4.88;;;;;;;-0.13;100.00;100605.34;5000219;28;20054;-75
2023/03/12 08:59:12;;;;;;;7.35;5.15;;;;;;;-0.11;100.00;100608.78;4987784;28;20096;-74
2023/03/12 09:01:38;;;;;;;7.18;5.28;;;;;;;-0.10;100.00;100601.00;4986754;28;20548;-75
2023/03/12 09:04:04;;;;;;;9.43;5.32;;;;;;;-0.10;100.00;100602.72;4967298;28;20504;-75
2023/03/12 09:06:30;;;;;;;7.38;5.05;;;;;;;-0.11;100.00;100583.63;4967729;28;20056;-75
2023/03/12 09:08:55;;;;;;;7.78;4.93;;;;;;;-0.09;100.00;100586.22;4982849;28;20053;-75
2023/03/12 09:11:21;;;;;;;8.52;5.60;;;;;;;-0.08;100.00;100583.63;4999511;28;20670;-74
2023/03/12 09:13:46;;;;;;;9.25;5.18;;;;;;;-0.07;100.00;100584.47;4981823;28;20079;-74
2023/03/12 09:16:12;;;;;;;8.80;4.97;;;;;;;-0.05;100.00;100580.13;4986355;28;20528;-74
2023/03/12 09:18:37;;;;;;;7.57;5.32;;;;;;;-0.04;100.00;100585.31;4969004;28;20053;-74
2023/03/12 09:21:03;;;;;;;8.70;5.32;;;;;;;0.00;100.00;100591.41;4999462;28;20512;-74
2023/03/12 09:23:29;;;;;;;9.18;5.00;;;;;;;0.04;100.00;100587.03;4999359;28;20465;-74
2023/03/12 09:25:56;;;;;;;6.35;5.03;;;;;;;0.05;100.00;100576.59;4985406;28;20077;-74
2023/03/12 09:28:22;;;;;;;11.15;5.38;;;;;;;0.08;100.00;100568.78;4995979;28;20042;-74
2023/03/12 09:30:47;;;;;;;8.57;5.40;;;;;;;0.12;100.00;100567.88;4980437;28;21035;-74
2023/03/12 09:33:17;;;;;;;10.73;6.38;;;;;;;0.16;100.00;100570.47;4967935;28;20527;-74
2023/03/12 09:35:43;;;;;;;8.52;5.50;;;;;;;0.19;100.00;100573.03;4980379;28;20424;-74
2023/03/12 09:38:13;;;;;;;7.72;5.65;;;;;;;0.21;100.00;100561.72;4984133;28;20044;-74
2023/03/12 09:40:38;;;;;;;8.60;5.63;;;;;;;0.26;100.00;100564.28;4966998;28;20054;-74
2023/03/12 09:43:11;;;;;;;8.40;5.45;;;;;;;0.29;100.00;100561.69;4969368;28;20693;-74
2023/03/12 09:45:38;;;;;;;;;;;;;;;0.34;100.00;100569.47;4995715;28;20099;-75
2023/03/12 09:48:13;;;;;;;5.40;4.45;;;;;;;0.37;100.00;100567.69;4981063;28;19965;-74
2023/03/12 09:50:42;;;;;;;10.15;5.95;;;;;;;0.40;100.00;100554.63;4982137;28;21682;-74
2023/03/12 09:53:10;;;;;;;8.65;6.05;;;;;;;0.45;100.00;100556.34;4999097;28;20417;-74
2023/03/12 09:55:38;;;;;;;8.05;5.25;;;;;;;0.51;100.00;100546.75;4998699;28;20168;-74
2023/03/12 09:58:35;;;;;;;7.93;5.72;;;;;;;0.59;100.00;100548.44;4999153;28;20045;-74
2023/03/12 10:01:13;;;;;;;7.82;5.45;;;;;;;0.66;100.00;100542.28;4996162;28;20278;-75
2023/03/12 10:03:58;;;;;;;9.55;5.57;;;;;;;0.71;100.00;100552.66;4979996;28;20056;-74
2023/03/12 10:06:37;;;;;;;7.78;5.32;;;;;;;0.75;100.00;100541.31;4998767;28;20182;-74
2023/03/12 10:09:34;;;;;;;12.32;6.47;;;;;;;0.77;100.00;100527.41;4971424;28;20042;-75
2023/03/12 10:12:35;;;;;;;10.43;5.82;;;;;;;0.81;100.00;100541.25;4987895;28;20056;-75
2023/03/12 10:15:12;;;;;;;10.77;6.22;;;;;;;0.86;100.00;100529.06;4955385;28;20096;-74
2023/03/12 10:17:56;;;;;;;11.43;5.95;;;;;;;0.94;100.00;100524.63;4999368;28;20538;-74
2023/03/12 10:20:31;;;;;;;9.52;5.55;;;;;;;1.00;100.00;100518.50;4997931;28;20033;-74
2023/03/12 10:23:18;;;;;;;9.15;5.82;;;;;;;1.04;100.00;100508.88;4997836;28;20722;-75
2023/03/12 10:25:52;;;;;;;9.80;6.28;;;;;;;1.08;100.00;100518.38;4997946;28;20084;-75
2023/03/12 10:28:21;;;;;;;12.38;7.40;;;;;;;1.11;100.00;100505.31;4966905;28;20061;-75
2023/03/12 10:30:53;;;;;;;10.50;6.72;;;;;;;1.15;100.00;100507.00;4978897;28;20030;-75
2023/03/12 10:33:19;;;;;;;12.75;7.03;;;;;;;1.19;100.00;100506.09;4984358;28;20045;-75
2023/03/12 10:35:45;;;;;;;11.68;6.80;;;;;;;1.24;100.00;100511.25;4968387;28;20490;-75
2023/03/12 10:38:17;;;;;;;11.25;6.57;;;;;;;1.28;100.00;100507.72;4997293;28;20049;-75
2023/03/12 10:40:42;;;;;;;12.50;7.32;;;;;;;1.31;100.00;100496.41;4980387;28;20038;-75
2023/03/12 10:43:08;;;;;;;14.35;7.07;;;;;;;1.37;100.00;100492.84;4978648;28;20073;-74
2023/03/12 10:45:45;;;;;;;11.00;7.13;;;;;;;1.45;100.00;100504.91;4985410;28;20045;-74
2023/03/12 10:48:21;;;;;;;14.30;7.93;;;;;;;1.54;100.00;100500.44;4979288;28;20485;-74
2023/03/12 10:51:04;;;;;;;12.52;6.95;;;;;;;1.65;100.00;100501.19;4996487;28;20088;-74
2023/03/12 10:53:33;;;;;;;14.73;7.55;;;;;;;1.78;100.00;100495.78;4982316;28;20397;-75
2023/03/12 10:56:07;;;;;;;18.45;8.27;;;;;;;1.90;100.00;100499.06;4997583;28;20068;-74
2023/03/12 10:58:34;;;;;;;17.73;8.43;;;;;;;1.99;100.00;100490.25;4994628;28;20193;-75
2023/03/12 11:01:01;;;;;;;15.07;8.35;;;;;;;2.07;100.00;100495.31;4978538;28;20429;-74
2023/03/12 11:03:28;;;;;;;17.90;9.50;;;;;;;2.17;100.00;100488.19;4997063;28;20038;-74
2023/03/12 11:05:55;;;;;;;16.25;8.63;;;;;;;2.28;100.00;100490.63;4996616;28;20057;-74
2023/03/12 11:08:28;;;;;;;17.88;9.07;;;;;;;2.38;100.00;100493.97;4997485;28;20034;-74
2023/03/12 11:10:54;;;;;;;16.87;9.90;;;;;;;2.49;100.00;100494.66;4997431;28;20045;-74
2023/03/12 11:13:49;;;;;;;20.13;9.90;;;;;;;2.67;100.00;100503.06;4997869;28;20725;-74
2023/03/12 11:16:14;;;;;;;21.05;9.98;;;;;;;2.83;100.00;100494.03;4976612;28;20053;-74
2023/03/12 11:18:53;;;;;;;18.30;9.65;;;;;;;3.00;100.00;100485.03;4997388;28;20523;-74